createdAt,value
2023-03-30T00:04:34.724Z,7.43
2023-03-30T00:09:42.373Z,7.35
2023-03-30T00:14:43.926Z,7.97
2023-03-30T00:19:45.951Z,7.30
2023-03-30T00:24:47.717Z,6.47
2023-03-30T00:29:49.294Z,9.38
2023-03-30T00:34:50.949Z,6.45
2023-03-30T00:39:53.361Z,7.60
2023-03-30T00:45:03.035Z,7.40
2023-03-30T00:50:05.723Z,7.07
2023-03-30T00:55:09.141Z,6.70
2023-03-30T01:00:12.568Z,6.07
2023-03-30T01:05:14.163Z,7.10
2023-03-30T01:10:16.392Z,6.45
2023-03-30T01:15:18.090Z,6.97
2023-03-30T01:20:34.929Z,7.50
2023-03-30T01:25:52.437Z,7.28
2023-03-30T01:31:06.657Z,6.50
2023-03-30T01:36:31.107Z,8.00
2023-03-30T01:42:00.645Z,8.25
2023-03-30T01:47:10.043Z,8.57
2023-03-30T01:52:17.576Z,7.03
2023-03-30T01:57:22.302Z,8.25
2023-03-30T02:02:27.499Z,8.27
2023-03-30T02:07:31.997Z,8.40
2023-03-30T02:12:33.730Z,7.72
2023-03-30T02:17:35.998Z,9.07
2023-03-30T02:22:38.044Z,8.30
2023-03-30T02:27:41.983Z,9.07
2023-03-30T02:32:53.280Z,9.00
2023-03-30T02:38:01.580Z,9.07
2023-03-30T02:43:45.565Z,10.20
2023-03-30T02:48:53.501Z,11.50
2023-03-30T02:54:40.076Z,11.23
2023-03-30T03:00:00.423Z,11.52
2023-03-30T03:05:04.060Z,13.13
2023-03-30T03:10:40.980Z,13.65
2023-03-30T03:15:45.545Z,13.20
2023-03-30T03:20:48.178Z,14.02
2023-03-30T03:25:49.973Z,13.77
2023-03-30T03:30:54.191Z,12.82
2023-03-30T03:36:00.246Z,12.38
2023-03-30T03:41:04.615Z,14.32
2023-03-30T03:46:07.021Z,15.80
2023-03-30T03:51:09.836Z,13.32
2023-03-30T03:56:11.811Z,11.68
2023-03-30T04:01:14.449Z,11.70
2023-03-30T04:06:16.407Z,11.32
2023-03-30T04:11:18.987Z,12.60
2023-03-30T04:16:31.911Z,11.85
2023-03-30T04:22:02.362Z,11.07
2023-03-30T04:27:28.743Z,13.32
2023-03-30T04:33:03.361Z,10.52
2023-03-30T04:38:36.473Z,13.30
2023-03-30T04:43:47.118Z,10.82
2023-03-30T04:49:03.505Z,13.32
2023-03-30T04:54:25.658Z,11.57
2023-03-30T04:59:45.956Z,11.30
2023-03-30T05:05:19.661Z,15.55
2023-03-30T05:10:50.593Z,11.27
2023-03-30T05:16:12.018Z,12.60
2023-03-30T05:21:32.031Z,11.98
2023-03-30T05:26:48.813Z,11.63
2023-03-30T05:32:06.294Z,12.38
2023-03-30T05:37:37.742Z,14.32
2023-03-30T05:43:14.605Z,11.90
2023-03-30T05:48:34.543Z,12.65
2023-03-30T05:54:14.835Z,11.25
2023-03-30T05:59:24.555Z,12.23
2023-03-30T06:04:44.504Z,12.90
2023-03-30T06:09:47.159Z,12.38
2023-03-30T06:14:58.591Z,11.35
2023-03-30T06:20:21.532Z,12.45
2023-03-30T06:25:24.673Z,11.65
2023-03-30T06:30:28.003Z,12.05
2023-03-30T06:35:33.232Z,13.23
2023-03-30T06:40:35.898Z,15.68
2023-03-30T06:45:38.114Z,11.43
2023-03-30T06:50:40.689Z,11.75
2023-03-30T06:56:02.572Z,14.10
2023-03-30T07:01:14.007Z,11.43
2023-03-30T07:06:35.604Z,12.40
2023-03-30T07:11:37.194Z,13.40
2023-03-30T07:16:39.526Z,11.00
2023-03-30T07:21:42.117Z,12.05
2023-03-30T07:26:46.979Z,11.23
2023-03-30T07:31:48.748Z,12.32
2023-03-30T07:36:50.442Z,12.70
2023-03-30T07:41:53.921Z,12.10
2023-03-30T07:46:57.887Z,10.38
2023-03-30T07:52:01.393Z,10.98
2023-03-30T07:57:12.226Z,12.30
2023-03-30T08:02:14.981Z,13.13
2023-03-30T08:07:30.061Z,12.90
2023-03-30T08:12:42.097Z,10.15
2023-03-30T08:17:43.723Z,9.73
2023-03-30T08:22:45.647Z,10.57
2023-03-30T08:27:47.433Z,12.63
2023-03-30T08:32:49.160Z,8.85
2023-03-30T08:37:50.912Z,8.95
2023-03-30T08:43:17.201Z,9.73
2023-03-30T08:48:21.210Z,9.30
2023-03-30T08:53:23.016Z,11.93
2023-03-30T08:58:44.329Z,12.43
2023-03-30T09:04:16.706Z,12.20
2023-03-30T09:09:20.132Z,11.25
2023-03-30T09:14:29.404Z,14.48
2023-03-30T09:19:35.904Z,14.68
2023-03-30T09:24:37.519Z,12.98
2023-03-30T09:29:45.374Z,14.20
2023-03-30T09:34:50.381Z,13.30
2023-03-30T09:39:52.013Z,16.92
2023-03-30T09:45:14.780Z,14.35
2023-03-30T09:50:26.853Z,14.35
2023-03-30T09:55:31.442Z,15.98
2023-03-30T10:00:34.157Z,16.73
2023-03-30T10:05:36.768Z,14.48
2023-03-30T10:10:40.926Z,18.00
2023-03-30T10:15:44.906Z,14.40
2023-03-30T10:21:13.037Z,19.05
2023-03-30T10:26:19.374Z,17.05
2023-03-30T10:31:22.271Z,14.75
2023-03-30T10:36:29.598Z,13.65
2023-03-30T10:41:31.676Z,17.02
2023-03-30T10:46:33.311Z,10.02
2023-03-30T10:52:01.568Z,9.13
2023-03-30T10:57:10.254Z,11.10
2023-03-30T11:02:15.243Z,7.75
2023-03-30T11:07:32.504Z,3.70
2023-03-30T11:12:39.682Z,4.63
2023-03-30T11:17:54.126Z,5.07
2023-03-30T11:23:04.642Z,6.18
2023-03-30T11:28:19.024Z,5.55
2023-03-30T11:33:36.995Z,2.97
2023-03-30T11:38:44.371Z,2.75
2023-03-30T11:43:46.019Z,2.22
2023-03-30T11:49:06.305Z,4.75
2023-03-30T11:54:59.859Z,2.20
2023-03-30T12:00:31.027Z,2.72
2023-03-30T12:05:39.957Z,2.35
2023-03-30T12:10:42.692Z,2.20
2023-03-30T12:15:55.804Z,2.55
2023-03-30T12:21:00.378Z,3.40
2023-03-30T12:26:04.249Z,2.45
2023-03-30T12:31:06.431Z,3.17
2023-03-30T12:36:38.280Z,5.65
2023-03-30T12:41:48.721Z,3.72
2023-03-30T12:47:18.542Z,4.30
2023-03-30T12:52:51.360Z,3.67
2023-03-30T12:58:10.821Z,4.05
2023-03-30T13:03:22.418Z,4.95
2023-03-30T13:08:37.824Z,5.93
2023-03-30T13:13:47.273Z,4.97
2023-03-30T13:18:54.831Z,3.55
2023-03-30T13:24:05.025Z,3.95
2023-03-30T13:29:11.677Z,5.70
2023-03-30T13:34:31.401Z,4.15
2023-03-30T13:39:42.436Z,3.67
2023-03-30T13:44:58.733Z,3.92
2023-03-30T13:50:03.570Z,4.15
2023-03-30T13:55:10.617Z,5.93
2023-03-30T14:00:47.256Z,4.35
2023-03-30T14:05:50.193Z,5.45
2023-03-30T14:10:52.382Z,5.20
2023-03-30T14:15:54.687Z,5.95
2023-03-30T14:20:58.203Z,4.63
2023-03-30T14:26:12.357Z,3.17
2023-03-30T14:31:20.108Z,4.20
2023-03-30T14:36:22.093Z,3.95
2023-03-30T14:41:27.576Z,3.72
2023-03-30T14:46:43.332Z,3.75
2023-03-30T14:51:48.579Z,6.65
2023-03-30T14:56:58.902Z,2.72
2023-03-30T15:02:01.453Z,4.82
2023-03-30T15:07:03.463Z,4.28
2023-03-30T15:12:05.975Z,3.83
2023-03-30T15:17:21.829Z,4.65
2023-03-30T15:22:38.184Z,5.00
2023-03-30T15:27:42.910Z,2.60
2023-03-30T15:32:44.663Z,2.92
2023-03-30T15:38:04.015Z,3.75
2023-03-30T15:43:11.603Z,3.60
2023-03-30T15:48:13.563Z,4.97
2023-03-30T15:53:21.829Z,1.90
2023-03-30T15:58:26.114Z,2.20
2023-03-30T16:03:40.345Z,0.93
2023-03-30T16:08:44.369Z,2.85
2023-03-30T16:13:48.463Z,1.10
2023-03-30T16:18:50.286Z,2.45
2023-03-30T16:23:52.126Z,4.55
2023-03-30T16:28:53.959Z,2.00
2023-03-30T16:33:55.702Z,1.20
2023-03-30T16:38:57.351Z,2.35
2023-03-30T16:43:59.035Z,4.40
2023-03-30T16:49:00.718Z,2.03
2023-03-30T16:54:02.569Z,2.75
2023-03-30T16:59:04.628Z,3.22
2023-03-30T17:04:09.573Z,1.70
2023-03-30T17:09:17.138Z,2.55
2023-03-30T17:14:20.349Z,3.03
2023-03-30T17:19:22.118Z,1.70
2023-03-30T17:24:23.759Z,2.88
2023-03-30T17:29:25.615Z,1.20
2023-03-30T17:34:27.237Z,1.20
2023-03-30T17:39:29.090Z,3.50
2023-03-30T17:44:30.739Z,1.70
2023-03-30T17:49:32.460Z,1.30
2023-03-30T17:54:34.079Z,2.05
2023-03-30T17:59:36.340Z,1.42
2023-03-30T18:04:38.252Z,3.10
2023-03-30T18:09:39.926Z,3.15
2023-03-30T18:14:41.547Z,1.45
2023-03-30T18:19:44.549Z,1.75
2023-03-30T18:24:46.150Z,1.30
2023-03-30T18:29:47.744Z,2.08
2023-03-30T18:34:49.316Z,1.83
2023-03-30T18:39:51.052Z,1.60
2023-03-30T18:44:53.525Z,2.35
2023-03-30T18:49:55.147Z,2.10
2023-03-30T18:54:57.247Z,2.80
2023-03-30T18:59:58.920Z,2.35
2023-03-30T19:05:00.758Z,2.50
2023-03-30T19:10:02.402Z,2.22
2023-03-30T19:15:05.094Z,2.28
2023-03-30T19:20:07.379Z,1.45
2023-03-30T19:25:09.890Z,1.73
2023-03-30T19:30:14.168Z,2.95
2023-03-30T19:35:17.020Z,1.83
2023-03-30T19:40:19.602Z,1.63
2023-03-30T19:45:22.964Z,2.13
2023-03-30T19:50:25.067Z,2.28
2023-03-30T19:55:27.456Z,1.98
2023-03-30T20:00:31.373Z,2.15
2023-03-30T20:05:33.044Z,5.90
2023-03-30T20:10:34.720Z,1.33
2023-03-30T20:15:36.385Z,1.73
2023-03-30T20:20:38.421Z,1.73
2023-03-30T20:25:46.429Z,3.90
2023-03-30T20:30:48.292Z,2.15
2023-03-30T20:35:52.893Z,1.30
2023-03-30T20:40:59.143Z,2.05
2023-03-30T20:46:09.204Z,2.15
2023-03-30T20:51:12.974Z,1.40
2023-03-30T20:56:14.958Z,1.58
2023-03-30T21:01:18.968Z,1.58
2023-03-30T21:06:23.797Z,1.88
2023-03-30T21:11:29.074Z,2.42
2023-03-30T21:16:30.922Z,2.30
2023-03-30T21:21:34.796Z,3.00
2023-03-30T21:26:36.929Z,1.63
2023-03-30T21:31:38.533Z,2.53
2023-03-30T21:36:40.389Z,1.30
2023-03-30T21:41:42.187Z,3.20
2023-03-30T21:46:43.820Z,2.10
2023-03-30T21:51:45.888Z,1.65
2023-03-30T21:56:47.583Z,3.17
2023-03-30T22:01:49.199Z,1.75
2023-03-30T22:06:50.922Z,2.15
2023-03-30T22:11:54.078Z,1.95
2023-03-30T22:16:57.928Z,2.45
2023-03-30T22:21:59.546Z,2.50
2023-03-30T22:27:01.155Z,2.22
2023-03-30T22:32:03.020Z,1.92
2023-03-30T22:37:04.700Z,2.30
2023-03-30T22:42:06.941Z,2.72
2023-03-30T22:47:08.838Z,3.72
2023-03-30T22:52:10.516Z,2.05
2023-03-30T22:57:12.175Z,2.08
2023-03-30T23:02:13.915Z,1.45
2023-03-30T23:07:15.846Z,2.88
2023-03-30T23:12:17.510Z,3.90
2023-03-30T23:17:19.083Z,3.25
2023-03-30T23:22:21.410Z,2.53
2023-03-30T23:27:23.922Z,2.58
2023-03-30T23:32:25.692Z,2.50
2023-03-30T23:37:30.279Z,2.60
2023-03-30T23:42:31.924Z,2.92
2023-03-30T23:47:33.609Z,2.88
2023-03-30T23:52:35.268Z,4.10
2023-03-30T23:57:36.869Z,2.72
